Burns Pinion Ridge Reserve, California Weather observations

Data are for 10 minute period ending at time listed.
 Day   Time   Solar   Ave.   Ave.  Ave.  Vector  Max.   Baro.   Total    
  of    of     Rad.   Air    Rel.  Wind   Wind   Wind  Press.  Precip.   
Year   Day            Temp.  Hum.  Speed  Dir.   Gust                    
2015   (PST)  Kw/m2    F      %     mph   deg.    mph    mb.     in.     
-------------------------------------------------------------------------
 116    7:10   0.39   53.0    38   17.1   327    26.4   873.1    0.00 
 116    7:20   0.43   53.3    37   17.0   327    25.1   873.1    0.00 
 116    7:30   0.46   53.5    37   18.3   328    28.0   873.1    0.00 
 116    7:40   0.50   53.9    37   16.1   322    26.5   873.3    0.00 
 116    7:50   0.54   54.4    36   17.0   334    25.1   873.4    0.00 
 116    8:00   0.57   54.1    35   17.9   337    26.9   873.4    0.00 
 116    8:10   0.61   54.6    34   18.2   331    26.1   873.5    0.00 
 116    8:20   0.64   54.7    35   17.8   329    27.0   873.5    0.00 
 116    8:30   0.67   55.0    33   17.7   333    26.3   873.5    0.00 
 116    8:40   0.71   55.6    31   18.2   343    28.0   873.5    0.00 
 116    8:50   0.74   55.8    30   17.2   340    26.5   873.5    0.00 
 116    9:00   0.77   56.2    30   16.6   347    25.9   873.6    0.00 
 116    9:10   0.80   56.8    29   17.6   340    28.1   873.7    0.00 
 116    9:20   0.82   57.2    28   16.1   340    28.4   874.0    0.00 
 116    9:30   0.84   57.5    28   15.9   344    25.9   874.0    0.00 
 116    9:40   0.87   58.0    28   15.3   335    22.5   874.1    0.00 
 116    9:50   0.89   58.3    28   16.5   338    25.5   874.0    0.00 
 116   10:00   0.91   58.5    28   18.3   340    27.0   874.0    0.00 
 116   10:10   0.93   58.2    28   20.6     0    30.0   874.1    0.00 
 116   10:20   0.94   58.8    29   19.1     2    28.1   874.1    0.00 
 116   10:30   0.95   59.1    28   18.6   341    29.3   874.0    0.00 
 116   10:40   0.97   59.6    28   18.7   346    30.5   874.0    0.00 
 116   10:50   0.98   60.0    27   18.3   337    27.7   874.0    0.00 
 116   11:00   0.99   60.0    28   16.7   337    25.8   873.9    0.00 
 116   11:10   1.00   60.2    27   17.5   339    30.1   873.9    0.00 
 116   11:20   1.00   61.5    26   14.8   335    25.1   873.9    0.00 
 116   11:30   1.01   61.1    26   14.6   325    21.7   873.9    0.00 
 116   11:40   1.01   61.3    26   16.9   326    30.5   873.8    0.00 
 116   11:50   1.01   61.7    25   18.2   326    34.5   873.9    0.00 
 116   12:00   0.99   61.7    24   16.3   329    27.8   873.8    0.00 
 116   12:10   1.01   62.3    24   18.7   341    29.8   873.8    0.00 
 116   12:20   1.00   62.6    22   17.5   329    31.6   873.7    0.00 
 116   12:30   0.99   63.2    21   18.3   331    29.6   873.7    0.00 
 116   12:40   1.00   63.3    20   17.9   329    27.5   873.7    0.00 
 116   12:50   0.98   65.2    19   16.3   330    24.2   873.6    0.00 
 116   13:00   0.98   65.0    18   18.5   327    29.4   873.6    0.00 
 116   13:10   0.95   64.7    17   18.5   335    33.5   873.6    0.00 
 116   13:20   0.94   65.6    16   17.9   336    30.2   873.7    0.00 
 116   13:30   0.92   65.2    16   21.4   332    30.8   873.7    0.00 
 116   13:40   0.89   65.6    15   20.6   332    30.0   873.7    0.00 
 116   13:50   0.85   65.4    15   20.1   331    30.2   873.6    0.00 
 116   14:00   0.89   66.3    15   17.8   330    27.8   873.5    0.00 
 116   14:10   0.83   66.5    14   19.9   322    30.5   873.3    0.00 
 116   14:20   0.83   65.9    14   21.6   330    35.2   873.4    0.00 
 116   14:30   0.80   67.1    14   18.7   335    30.3   873.2    0.00 
 116   14:40   0.74   66.9    14   18.8   332    30.2   873.2    0.00 
 116   14:50   0.74   66.5    14   16.3   328    26.9   873.2    0.00 
 116   15:00   0.67   67.6    14   17.9   330    28.8   873.0    0.00 
 116   15:10   0.64   67.3    14   17.1   338    27.2   872.9    0.00 
 116   15:20   0.60   68.0    14   15.2   344    27.5   872.9    0.00 
 116   15:30   0.58   67.2    14   15.6   323    27.6   872.9    0.00 
 116   15:40   0.55   67.2    14   15.4   324    29.4   872.8    0.00 
 116   15:50   0.51   66.9    14   19.2   338    29.6   872.7    0.00 
 116   16:00   0.45   67.1    14   15.3   328    25.9   872.6    0.00 
 116   16:10   0.32   66.3    14   17.2   336    30.2   872.5    0.00 
 116   16:20   0.41   66.6    14   16.1   331    25.2   872.4    0.00 
 116   16:30   0.39   67.6    14   17.3   354    26.8   872.3    0.00 
 116   16:40   0.35   67.7    14   15.5   338    21.6   872.3    0.00 
 116   16:50   0.32   67.2    14   15.9   339    23.8   872.3    0.00 
 116   17:00   0.25   67.1    14   17.0   359    27.9   872.3    0.00 
 116   17:10   0.19   66.2    15   15.2   340    25.1   872.3    0.00 
 116   17:20   0.18   65.7    15   14.2   338    20.7   872.3    0.00 
 116   17:30   0.13   65.9    14   16.9   356    27.1   872.4    0.00 
 116   17:40   0.09   64.6    15   17.3   354    26.2   872.3    0.00 
 116   17:50   0.06   63.9    17   13.8   355    20.5   872.3    0.00 
 116   18:00   0.04   63.1    16   13.9   356    21.9   872.2    0.00 
 116   18:10   0.02   62.5    16   14.8   356    24.5   872.1    0.00 
 116   18:20   0.01   62.1    17   12.7   354    18.3   872.1    0.00 
 116   18:30   0.00   61.7    17   12.6   356    19.1   872.1    0.00 
 116   18:40   0.00   61.5    17   13.5   360    20.0   872.3    0.00 
 116   18:50   0.00   61.1    17   11.2   357    16.8   872.4    0.00 
 116   19:00   0.00   60.7    18   12.0   356    16.3   872.4    0.00 
 116   19:10   0.00   60.5    18   11.9     2    21.0   872.5    0.00 
 116   19:20   0.00   60.6    18   11.2   357    19.4   872.6    0.00 
 116   19:30   0.00   60.3    18   11.5     3    17.1   872.7    0.00 
 116   19:40   0.00   59.8    18   10.0   358    16.1   872.8    0.00 
 116   19:50   0.00   59.5    18   10.5   354    15.4   873.0    0.00 
 116   20:00   0.00   59.6    18    9.5   351    15.8   873.3    0.00 
 116   20:10   0.00   59.3    21   10.9   342    17.8   873.5    0.00 
 116   20:20   0.00   58.8    28   11.5   342    20.5   873.6    0.00 
 116   20:30   0.00   58.2    30   10.3   337    15.7   873.6    0.00 
 116   20:40   0.00   57.8    32   12.4   332    18.2   873.6    0.00 
 116   20:50   0.00   57.6    33   12.8   337    21.9   873.6    0.00 
 116   21:00   0.00   57.5    32   13.3   340    19.8   873.7    0.00 
 116   21:10   0.00   57.6    32   12.4   336    19.2   873.7    0.00 
 116   21:20   0.00   57.1    32    9.8   333    15.5   874.0    0.00 
 116   21:30   0.00   56.7    34   11.6   330    19.3   874.0    0.00 
 116   21:40   0.00   56.6    34   11.6   332    17.3   874.0    0.00 
 116   21:50   0.00   56.3    34    9.6   339    13.8   874.2    0.00 
 116   22:00   0.00   56.7    34   12.9   339    20.5   874.2    0.00 
 116   22:10   100.00  99999.0   99999  99999.0   99999   99999.0   99999.0   99999.00 
 116   22:20   100.00  99999.0   99999  99999.0   99999   99999.0   99999.0   99999.00 
 116   22:30   100.00  99999.0   99999  99999.0   99999   99999.0   99999.0   99999.00 
 116   22:40   100.00  99999.0   99999  99999.0   99999   99999.0   99999.0   99999.00 
 116   22:50   100.00  99999.0   99999  99999.0   99999   99999.0   99999.0   99999.00 
 116   23:00   100.00  99999.0   99999  99999.0   99999   99999.0   99999.0   99999.00 
 116   23:10   0.00   57.6    31   18.1   340    24.2   874.6    0.00 
 116   23:20   0.00   57.2    32   17.4   342    24.5   874.6    0.00 
 116   23:30   0.00   56.9    33   17.0   341    24.1   874.7    0.00 
 116   23:40   0.00   56.5    33   16.5   341    22.0   874.7    0.00 
 116   23:50   0.00   56.4    32   15.5   340    22.9   874.8    0.00 
 117    0:00   0.00   56.3    32   15.8   339    21.8   875.0    0.00 
 117    0:10   0.00   56.1    32   16.1   341    23.0   875.1    0.00 
 117    0:20   0.00   55.9    32   16.9   341    24.5   875.0    0.00 
 117    0:30   0.00   55.6    32   17.4   343    24.5   874.9    0.00 
 117    0:40   0.00   55.3    32   17.1   340    26.7   874.9    0.00 
 117    0:50   0.00   55.2    31   16.8   340    25.7   874.8    0.00 
 117    1:00   0.00   54.9    30   12.8   351    20.6   874.9    0.00 
 117    1:10   0.00   54.9    29   13.3   345    22.3   875.1    0.00 
 117    1:20   0.00   54.6    28   16.3   341    27.2   875.0    0.00 
 117    1:30   0.00   54.5    28   17.0   345    24.7   874.9    0.00 
 117    1:40   0.00   54.1    29   15.4   346    22.1   875.0    0.00 
 117    1:50   0.00   53.8    28   15.2   343    24.8   875.1    0.00 
 117    2:00   0.00   53.6    28   17.3   346    29.3   875.1    0.00 
 117    2:10   0.00   53.8    25   22.3   353    33.5   874.8    0.00 
 117    2:20   0.00   53.7    24   24.5   354    37.3   874.8    0.00 
 117    2:30   0.00   53.6    22   23.9   354    34.4   875.0    0.00 
 117    2:40   0.00   53.5    22   26.6   356    40.3   874.8    0.00 
 117    2:50   0.00   53.5    21   24.4   356    37.0   874.8    0.00 
 117    3:00   0.00   53.2    22   24.0   353    37.0   874.9    0.00 
 117    3:10   0.00   52.9    23   20.2   351    30.6   874.9    0.00 
 117    3:20   0.00   52.5    24   19.8   345    30.0   874.9    0.00 
 117    3:30   0.00   52.6    24   22.5   357    34.0   874.6    0.00 
 117    3:40   0.00   52.9    24   24.9   359    36.1   874.4    0.00 
 117    3:50   0.00   52.8    24   24.1   356    37.6   874.7    0.00 
 117    4:00   0.00   52.4    24   25.1   358    37.5   874.8    0.00 
 117    4:10   0.00   52.0    24   21.7   357    33.8   875.1    0.00 
 117    4:20   0.00   52.1    23   21.3   350    33.0   875.5    0.00 
 117    4:30   0.00   51.8    23   23.0   350    34.0   875.0    0.00 
 117    4:40   0.00   51.7    23   21.5   352    35.0   874.9    0.00 
 117    4:50   0.00   51.8    22   17.2   352    28.2   875.7    0.00 
 117    5:00   0.00   51.5    23   20.4   345    29.6   875.5    0.00 
 117    5:10   0.01   51.0    25   21.3   344    33.5   875.0    0.00 
 117    5:20   0.01   51.0    24   15.8   345    33.0   875.8    0.00 
 117    5:30   0.01   51.1    24   21.6   343    29.7   876.0    0.00 
 117    5:40   0.02   51.1    24   22.5   350    33.7   875.6    0.00 
 117    5:50   0.03   51.2    23   20.0   355    29.5   875.8    0.00 
 117    6:00   0.11   52.2    23   19.7   354    29.6   876.1    0.00 
 117    6:10   0.19   53.0    22   21.6     0    32.5   876.4    0.00 
 117    6:20   0.23   53.3    22   20.7   353    30.5   876.4    0.00 
 117    6:30   0.26   53.6    22   17.9   345    29.9   876.5    0.00 
 117    6:40   0.30   53.7    21   22.1   349    33.1   876.5    0.00 
 117    6:50   0.33   54.2    21   23.8   354    32.2   876.3    0.00 
 117    7:00   0.34   54.0    21   24.3   351    36.2   876.2    0.00 

Return to Burns Pinion Ridge Reserve graphs page.


Western Regional Climate Center,wrcc@dri.edu